createdAt,value
2022-10-06T00:02:39.551Z,15.30
2022-10-06T00:05:42.637Z,15.24
2022-10-06T00:08:46.210Z,15.30
2022-10-06T00:11:50.178Z,15.28
2022-10-06T00:14:52.893Z,15.29
2022-10-06T00:17:56.215Z,15.25
2022-10-06T00:21:00.311Z,15.24
2022-10-06T00:24:02.867Z,15.25
2022-10-06T00:27:06.892Z,15.35
2022-10-06T00:30:12.209Z,15.31
2022-10-06T00:33:17.904Z,15.33
2022-10-06T00:36:21.244Z,15.31
2022-10-06T00:39:23.788Z,15.37
2022-10-06T00:42:30.623Z,15.41
2022-10-06T00:45:37.786Z,15.49
2022-10-06T00:48:42.116Z,15.45
2022-10-06T00:51:48.889Z,15.57
2022-10-06T00:54:52.286Z,15.63
2022-10-06T00:57:56.867Z,15.76
2022-10-06T01:01:00.534Z,15.73
2022-10-06T01:04:10.429Z,15.78
2022-10-06T01:07:13.145Z,15.76
2022-10-06T01:10:15.881Z,15.84
2022-10-06T01:13:20.414Z,15.88
2022-10-06T01:16:26.984Z,15.88
2022-10-06T01:19:41.982Z,15.83
2022-10-06T01:22:48.520Z,15.92
2022-10-06T01:25:51.649Z,15.90
2022-10-06T01:28:54.453Z,15.88
2022-10-06T01:31:57.203Z,15.84
2022-10-06T01:34:59.773Z,15.76
2022-10-06T01:38:03.831Z,15.71
2022-10-06T01:41:06.830Z,15.65
2022-10-06T01:44:09.367Z,15.60
2022-10-06T01:47:12.077Z,15.66
2022-10-06T01:50:14.896Z,15.55
2022-10-06T01:53:19.190Z,15.51
2022-10-06T01:56:22.046Z,15.46
2022-10-06T01:59:25.447Z,15.47
2022-10-06T02:02:31.741Z,15.41
2022-10-06T02:05:34.432Z,15.36
2022-10-06T02:08:38.633Z,15.34
2022-10-06T02:11:41.232Z,15.27
2022-10-06T02:14:44.191Z,15.26
2022-10-06T02:17:46.804Z,15.26
2022-10-06T02:20:49.537Z,15.26
2022-10-06T02:23:53.556Z,15.24
2022-10-06T02:26:56.085Z,15.25
2022-10-06T02:29:58.777Z,15.16
2022-10-06T02:33:01.331Z,15.16
2022-10-06T02:36:04.616Z,15.15
2022-10-06T02:39:08.506Z,15.23
2022-10-06T02:42:11.264Z,15.30
2022-10-06T02:45:13.998Z,15.33
2022-10-06T02:48:16.536Z,15.34
2022-10-06T02:51:21.193Z,15.40
2022-10-06T02:54:25.084Z,15.50
2022-10-06T02:57:27.783Z,15.56
2022-10-06T03:00:30.551Z,15.69
2022-10-06T03:03:34.921Z,15.61
2022-10-06T03:06:37.654Z,15.67
2022-10-06T03:09:41.586Z,15.73
2022-10-06T03:12:44.271Z,15.72
2022-10-06T03:15:47.024Z,15.73
2022-10-06T03:18:51.258Z,15.78
2022-10-06T03:21:53.932Z,15.76
2022-10-06T03:24:58.085Z,15.79
2022-10-06T03:28:01.042Z,15.75
2022-10-06T03:31:10.069Z,15.74
2022-10-06T03:34:13.526Z,15.69
2022-10-06T03:37:16.228Z,15.76
2022-10-06T03:40:20.301Z,15.89
2022-10-06T03:43:22.850Z,15.80
2022-10-06T03:46:27.718Z,15.66
2022-10-06T03:49:30.318Z,15.68
2022-10-06T03:52:33.037Z,15.75
2022-10-06T03:55:37.092Z,15.81
2022-10-06T03:58:41.576Z,15.81
2022-10-06T04:01:46.117Z,15.79
2022-10-06T04:04:48.694Z,15.82
2022-10-06T04:07:51.234Z,15.86
2022-10-06T04:10:55.160Z,15.86
2022-10-06T04:14:00.544Z,15.94
2022-10-06T04:17:03.160Z,15.89
2022-10-06T04:20:06.456Z,15.91
2022-10-06T04:23:10.096Z,15.88
2022-10-06T04:26:16.392Z,15.88
2022-10-06T04:29:19.210Z,15.96
2022-10-06T04:32:21.757Z,15.80
2022-10-06T04:35:24.551Z,15.85
2022-10-06T04:38:29.390Z,15.71
2022-10-06T04:41:35.028Z,15.73
2022-10-06T04:44:37.858Z,15.76
2022-10-06T04:47:41.111Z,15.89
2022-10-06T04:50:43.833Z,15.84
2022-10-06T04:53:46.702Z,15.85
2022-10-06T04:56:50.778Z,15.69
2022-10-06T05:00:14.758Z,15.74
2022-10-06T05:03:17.699Z,15.73
2022-10-06T05:06:22.761Z,15.68
2022-10-06T05:09:25.322Z,15.67
2022-10-06T05:12:31.375Z,15.68
2022-10-06T05:15:33.944Z,15.61
2022-10-06T05:18:37.082Z,15.51
2022-10-06T05:21:39.805Z,15.69
2022-10-06T05:24:42.558Z,15.71
2022-10-06T05:27:46.473Z,15.69
2022-10-06T05:31:00.181Z,15.68
2022-10-06T05:34:02.974Z,15.59
2022-10-06T05:37:05.544Z,15.64
2022-10-06T05:40:09.007Z,15.58
2022-10-06T05:43:12.929Z,15.54
2022-10-06T05:46:20.411Z,15.41
2022-10-06T05:49:23.080Z,15.41
2022-10-06T05:52:25.770Z,15.45
2022-10-06T05:55:28.332Z,15.31
2022-10-06T05:58:32.572Z,15.19
2022-10-06T06:01:37.107Z,15.07
2022-10-06T06:04:39.771Z,14.94
2022-10-06T06:07:42.448Z,15.14
2022-10-06T06:10:45.005Z,15.12
2022-10-06T06:13:49.028Z,15.13
2022-10-06T06:16:50.623Z,15.17
2022-10-06T06:19:53.353Z,15.14
2022-10-06T06:22:55.927Z,15.14
2022-10-06T06:26:02.470Z,15.17
2022-10-06T06:29:07.066Z,15.34
2022-10-06T06:32:09.934Z,15.50
2022-10-06T06:35:12.850Z,15.80
2022-10-06T06:38:15.519Z,16.25
2022-10-06T06:41:20.239Z,16.40
2022-10-06T06:44:24.982Z,16.69
2022-10-06T06:47:27.541Z,16.63
2022-10-06T06:50:30.235Z,16.65
2022-10-06T06:53:33.104Z,17.10
2022-10-06T06:56:36.521Z,17.28
2022-10-06T06:59:40.407Z,17.66
2022-10-06T07:02:43.146Z,17.94
2022-10-06T07:05:46.754Z,18.33
2022-10-06T07:08:50.561Z,18.67
2022-10-06T07:11:53.127Z,18.62
2022-10-06T07:15:14.701Z,19.07
2022-10-06T07:18:34.976Z,18.90
2022-10-06T07:21:55.209Z,18.65
2022-10-06T07:25:11.464Z,18.88
2022-10-06T07:28:17.093Z,18.69
2022-10-06T07:31:21.302Z,18.15
2022-10-06T07:34:30.252Z,18.34
2022-10-06T07:37:35.222Z,18.27
2022-10-06T07:40:42.737Z,18.22
2022-10-06T07:43:58.250Z,18.25
2022-10-06T07:47:02.488Z,18.00
2022-10-06T07:50:05.888Z,17.87
2022-10-06T07:53:09.780Z,17.59
2022-10-06T07:56:15.756Z,17.50
2022-10-06T07:59:30.057Z,17.75
2022-10-06T08:02:35.824Z,17.81
2022-10-06T08:05:40.224Z,17.34
2022-10-06T08:08:44.004Z,17.57
2022-10-06T08:11:48.907Z,17.39
2022-10-06T08:14:51.785Z,17.40
2022-10-06T08:17:56.146Z,17.41
2022-10-06T08:20:59.514Z,17.49
2022-10-06T08:24:02.932Z,17.81
2022-10-06T08:27:05.632Z,17.84
2022-10-06T08:30:09.151Z,17.77
2022-10-06T08:33:13.196Z,17.70
2022-10-06T08:36:18.486Z,17.59
2022-10-06T08:39:21.214Z,17.59
2022-10-06T08:42:30.418Z,17.65
2022-10-06T08:45:38.737Z,17.45
2022-10-06T08:48:43.488Z,17.20
2022-10-06T08:51:56.595Z,16.95
2022-10-06T08:55:08.558Z,16.87
2022-10-06T08:58:33.259Z,16.94
2022-10-06T09:01:42.584Z,17.10
2022-10-06T09:04:48.617Z,17.29
2022-10-06T09:08:05.297Z,17.27
2022-10-06T09:11:35.833Z,17.35
2022-10-06T09:14:43.262Z,17.52
2022-10-06T09:17:51.040Z,17.73
2022-10-06T09:20:58.282Z,17.83
2022-10-06T09:24:07.025Z,18.06
2022-10-06T09:27:18.503Z,18.09
2022-10-06T09:30:21.328Z,18.13
2022-10-06T09:33:25.504Z,18.16
2022-10-06T09:36:29.817Z,18.57
2022-10-06T09:39:36.742Z,18.80
2022-10-06T09:42:45.586Z,19.39
2022-10-06T09:45:48.239Z,19.42
2022-10-06T09:49:07.293Z,19.73
2022-10-06T09:52:16.339Z,20.15
2022-10-06T09:55:23.043Z,20.68
2022-10-06T09:58:31.402Z,20.79
2022-10-06T10:01:34.191Z,21.15
2022-10-06T10:04:41.431Z,21.09
2022-10-06T10:07:48.223Z,20.87
2022-10-06T10:10:51.780Z,21.17
2022-10-06T10:13:54.722Z,20.36
2022-10-06T10:16:57.335Z,20.46
2022-10-06T10:20:02.820Z,20.94
2022-10-06T10:23:20.400Z,21.40
2022-10-06T10:26:32.779Z,21.44
2022-10-06T10:29:51.907Z,21.31
2022-10-06T10:33:01.531Z,21.07
2022-10-06T10:36:07.718Z,21.85
2022-10-06T10:39:19.503Z,22.29
2022-10-06T10:42:30.814Z,22.20
2022-10-06T10:45:35.131Z,22.46
2022-10-06T10:48:43.160Z,22.72
2022-10-06T10:51:50.912Z,22.99
2022-10-06T10:55:18.650Z,23.06
2022-10-06T10:58:28.958Z,23.13
2022-10-06T11:01:37.358Z,22.55
2022-10-06T11:04:44.446Z,22.40
2022-10-06T11:07:54.617Z,22.19
2022-10-06T11:11:01.468Z,22.37
2022-10-06T11:14:10.000Z,22.65
2022-10-06T11:17:25.168Z,22.88
2022-10-06T11:20:44.012Z,22.79
2022-10-06T11:23:54.971Z,23.12
2022-10-06T11:27:19.028Z,22.88
2022-10-06T11:30:26.331Z,22.87
2022-10-06T11:33:35.870Z,23.63
2022-10-06T11:36:47.041Z,23.05
2022-10-06T11:39:59.131Z,23.51
2022-10-06T11:43:10.560Z,23.34
2022-10-06T11:46:31.122Z,23.28
2022-10-06T11:49:53.416Z,23.19
2022-10-06T11:52:56.316Z,23.23
2022-10-06T11:56:32.518Z,22.75
2022-10-06T11:59:36.439Z,22.49
2022-10-06T12:02:41.190Z,22.53
2022-10-06T12:05:59.184Z,21.99
2022-10-06T12:09:01.902Z,21.48
2022-10-06T12:13:05.459Z,21.68
2022-10-06T12:19:56.425Z,21.37
2022-10-06T12:23:05.529Z,21.48
2022-10-06T12:26:21.619Z,21.81
2022-10-06T12:29:43.686Z,21.84
2022-10-06T12:32:52.538Z,21.72
2022-10-06T12:36:02.590Z,21.24
2022-10-06T12:39:21.482Z,21.26
2022-10-06T12:42:29.361Z,21.73
2022-10-06T12:45:32.197Z,21.88
2022-10-06T12:48:45.232Z,21.74
2022-10-06T12:51:48.528Z,21.98
2022-10-06T12:55:04.694Z,21.79
2022-10-06T12:58:16.977Z,21.62
2022-10-06T13:01:19.797Z,21.20
2022-10-06T13:04:35.528Z,20.73
2022-10-06T13:07:56.972Z,20.91
2022-10-06T13:11:13.653Z,20.53
2022-10-06T13:14:17.254Z,20.61
2022-10-06T13:17:19.990Z,20.79
2022-10-06T13:20:35.563Z,20.73
2022-10-06T13:23:40.310Z,20.17
2022-10-06T13:26:43.104Z,20.24
2022-10-06T13:29:45.684Z,20.38
2022-10-06T13:32:53.135Z,20.58
2022-10-06T13:35:59.342Z,20.06
2022-10-06T13:39:05.003Z,20.01
2022-10-06T13:42:11.657Z,19.86
2022-10-06T13:45:16.130Z,19.40
2022-10-06T13:48:22.364Z,19.56
2022-10-06T13:51:30.549Z,19.57
2022-10-06T13:54:42.141Z,19.57
2022-10-06T13:57:46.326Z,19.64
2022-10-06T14:00:56.002Z,19.68
2022-10-06T14:04:12.810Z,19.56
2022-10-06T14:07:18.288Z,19.50
2022-10-06T14:13:39.143Z,19.46
2022-10-06T14:16:48.583Z,19.39
2022-10-06T14:19:52.095Z,19.52
2022-10-06T14:22:56.055Z,19.35
2022-10-06T14:25:58.779Z,19.49
2022-10-06T14:29:01.709Z,19.09
2022-10-06T14:32:08.985Z,19.12
2022-10-06T14:35:12.669Z,19.14
2022-10-06T14:38:16.702Z,19.00
2022-10-06T14:41:24.527Z,18.90
2022-10-06T14:44:27.136Z,18.84
2022-10-06T14:47:30.045Z,18.68
2022-10-06T14:50:34.316Z,18.70
2022-10-06T14:53:39.460Z,18.78
2022-10-06T14:56:43.098Z,18.57
2022-10-06T14:59:45.741Z,18.63
2022-10-06T15:02:48.909Z,18.50
2022-10-06T15:06:09.297Z,18.60
2022-10-06T15:09:13.435Z,18.53
2022-10-06T15:12:16.129Z,18.47
2022-10-06T15:15:18.798Z,18.25
2022-10-06T15:18:21.560Z,18.07
2022-10-06T15:21:24.306Z,18.13
2022-10-06T15:24:28.368Z,18.06
2022-10-06T15:27:48.497Z,17.92
2022-10-06T15:30:51.087Z,17.77
2022-10-06T15:33:54.887Z,17.82
2022-10-06T15:36:58.697Z,17.70
2022-10-06T15:40:05.485Z,17.74
2022-10-06T15:43:08.199Z,17.72
2022-10-06T15:46:13.046Z,17.67
2022-10-06T15:49:17.380Z,17.68
2022-10-06T15:52:22.901Z,17.72
2022-10-06T15:55:26.835Z,17.61
2022-10-06T15:58:29.399Z,17.50
2022-10-06T16:01:43.512Z,17.42
2022-10-06T16:04:57.144Z,17.36
2022-10-06T16:07:59.813Z,17.20
2022-10-06T16:11:04.174Z,17.13
2022-10-06T16:14:07.969Z,16.90
2022-10-06T16:17:11.891Z,16.89
2022-10-06T16:20:16.628Z,16.91
2022-10-06T16:23:20.472Z,16.79
2022-10-06T16:26:26.234Z,16.75
2022-10-06T16:29:29.431Z,16.68
2022-10-06T16:32:32.033Z,16.61
2022-10-06T16:35:34.706Z,16.56
2022-10-06T16:38:37.291Z,16.46
2022-10-06T16:41:41.497Z,16.39
2022-10-06T16:44:44.201Z,16.30
2022-10-06T16:47:46.806Z,16.24
2022-10-06T16:50:49.495Z,16.17
2022-10-06T16:53:54.783Z,16.05
2022-10-06T16:57:01.575Z,15.97
2022-10-06T17:00:05.807Z,15.87
2022-10-06T17:03:08.386Z,15.74
2022-10-06T17:06:14.249Z,15.62
2022-10-06T17:09:18.842Z,15.51
2022-10-06T17:12:22.740Z,15.39
2022-10-06T17:15:26.184Z,15.28
2022-10-06T17:18:31.192Z,15.21
2022-10-06T17:21:45.594Z,15.15
2022-10-06T17:24:49.754Z,15.05
2022-10-06T17:27:53.645Z,14.95
2022-10-06T17:30:59.331Z,14.83
2022-10-06T17:34:03.225Z,14.73
2022-10-06T17:37:05.768Z,14.65
2022-10-06T17:40:09.124Z,14.58
2022-10-06T17:43:13.012Z,14.48
2022-10-06T17:46:19.033Z,14.39
2022-10-06T17:49:24.003Z,14.32
2022-10-06T17:52:26.818Z,14.24
2022-10-06T17:55:29.803Z,14.24
2022-10-06T17:58:35.201Z,14.14
2022-10-06T18:01:38.404Z,14.03
2022-10-06T18:04:41.120Z,13.95
2022-10-06T18:07:43.649Z,13.87
2022-10-06T18:11:06.199Z,13.79
2022-10-06T18:14:12.228Z,13.72
2022-10-06T18:17:15.210Z,13.66
2022-10-06T18:20:18.063Z,13.53
2022-10-06T18:23:20.592Z,13.49
2022-10-06T18:26:23.280Z,13.42
2022-10-06T18:29:30.180Z,13.31
2022-10-06T18:36:14.663Z,13.18
2022-10-06T18:39:18.196Z,13.11
2022-10-06T18:42:20.926Z,13.07
2022-10-06T18:45:42.746Z,12.96
2022-10-06T18:48:58.654Z,12.95
2022-10-06T18:52:01.592Z,12.91
2022-10-06T18:55:04.348Z,12.85
2022-10-06T18:58:07.063Z,12.78
2022-10-06T19:01:12.479Z,12.68
2022-10-06T19:04:18.384Z,12.60
2022-10-06T19:07:20.961Z,12.43
2022-10-06T19:10:23.503Z,12.45
2022-10-06T19:13:26.080Z,12.42
2022-10-06T19:16:29.996Z,12.36
2022-10-06T19:19:34.080Z,12.22
2022-10-06T19:22:37.003Z,12.20
2022-10-06T19:25:39.564Z,12.21
2022-10-06T19:28:42.406Z,12.13
2022-10-06T19:31:47.888Z,12.06
2022-10-06T19:34:50.566Z,12.03
2022-10-06T19:37:53.256Z,12.00
2022-10-06T19:41:16.484Z,11.98
2022-10-06T19:44:18.267Z,11.95
2022-10-06T19:47:22.177Z,11.90
2022-10-06T19:50:25.261Z,11.87
2022-10-06T19:53:27.989Z,11.78
2022-10-06T19:56:32.993Z,11.78
2022-10-06T19:59:36.761Z,11.76
2022-10-06T20:02:42.872Z,11.68
2022-10-06T20:05:46.195Z,11.64
2022-10-06T20:08:48.866Z,11.60
2022-10-06T20:11:52.553Z,11.57
2022-10-06T20:14:55.250Z,11.55
2022-10-06T20:17:59.125Z,11.48
2022-10-06T20:21:01.804Z,11.42
2022-10-06T20:24:07.104Z,11.39
2022-10-06T20:27:10.177Z,11.36
2022-10-06T20:30:13.449Z,11.36
2022-10-06T20:33:17.525Z,11.32
2022-10-06T20:36:20.645Z,11.25
2022-10-06T20:39:40.777Z,11.24
2022-10-06T20:42:47.162Z,11.19
2022-10-06T20:45:50.208Z,11.17
2022-10-06T20:48:54.152Z,11.15
2022-10-06T20:51:56.850Z,11.12
2022-10-06T20:54:59.401Z,11.09
2022-10-06T20:58:02.075Z,11.05
2022-10-06T21:01:06.434Z,11.00
2022-10-06T21:04:10.716Z,11.00
2022-10-06T21:07:13.463Z,10.97
2022-10-06T21:10:16.288Z,10.90
2022-10-06T21:13:19.015Z,10.88
2022-10-06T21:16:24.231Z,10.81
2022-10-06T21:19:29.883Z,10.79
2022-10-06T21:22:32.601Z,10.76
2022-10-06T21:25:37.749Z,10.72
2022-10-06T21:28:41.252Z,10.62
2022-10-06T21:31:44.639Z,10.55
2022-10-06T21:34:48.690Z,10.58
2022-10-06T21:37:51.400Z,10.57
2022-10-06T21:40:54.414Z,10.55
2022-10-06T21:43:58.867Z,10.56
2022-10-06T21:47:02.674Z,10.53
2022-10-06T21:50:07.701Z,10.49
2022-10-06T21:53:10.497Z,10.48
2022-10-06T21:56:13.845Z,10.43
2022-10-06T21:59:16.686Z,10.37
2022-10-06T22:02:19.520Z,10.36
2022-10-06T22:05:23.475Z,10.36
2022-10-06T22:08:26.276Z,10.30
2022-10-06T22:11:31.061Z,10.28
2022-10-06T22:14:33.894Z,10.26
2022-10-06T22:17:36.887Z,10.25
2022-10-06T22:20:40.846Z,10.22
2022-10-06T22:23:45.165Z,10.19
2022-10-06T22:26:48.763Z,10.16
2022-10-06T22:29:51.559Z,10.17
2022-10-06T22:32:54.718Z,10.12
2022-10-06T22:35:58.742Z,10.10
2022-10-06T22:39:02.226Z,10.06
2022-10-06T22:42:05.189Z,9.98
2022-10-06T22:45:08.322Z,10.00
2022-10-06T22:48:11.048Z,9.89
2022-10-06T22:51:14.978Z,9.84
2022-10-06T22:54:20.034Z,9.85
2022-10-06T22:57:22.633Z,9.83
2022-10-06T23:00:27.948Z,9.81
2022-10-06T23:03:30.939Z,9.80
2022-10-06T23:06:35.388Z,9.82
2022-10-06T23:09:38.107Z,9.74
2022-10-06T23:12:40.884Z,9.72
2022-10-06T23:15:44.241Z,9.76
2022-10-06T23:18:47.347Z,9.65
2022-10-06T23:21:51.396Z,9.62
2022-10-06T23:24:54.486Z,9.63
2022-10-06T23:27:57.138Z,9.61
2022-10-06T23:30:59.975Z,9.52
2022-10-06T23:34:02.569Z,9.50
2022-10-06T23:37:06.666Z,9.51
2022-10-06T23:40:10.320Z,9.48
2022-10-06T23:43:12.932Z,9.46
2022-10-06T23:46:16.023Z,9.44
2022-10-06T23:49:18.670Z,9.39
2022-10-06T23:52:22.713Z,9.38
2022-10-06T23:55:25.746Z,9.37
2022-10-06T23:58:28.792Z,9.30
